createdAt,value
2022-08-17T00:02:26.806Z,23.46
2022-08-17T00:05:31.286Z,23.42
2022-08-17T00:08:36.207Z,23.46
2022-08-17T00:11:41.086Z,23.46
2022-08-17T00:14:42.496Z,23.46
2022-08-17T00:17:47.678Z,23.47
2022-08-17T00:20:49.110Z,23.48
2022-08-17T00:23:50.636Z,23.51
2022-08-17T00:26:52.306Z,23.53
2022-08-17T00:29:53.740Z,23.51
2022-08-17T00:33:11.611Z,23.47
2022-08-17T00:36:17.974Z,23.41
2022-08-17T00:39:19.660Z,23.41
2022-08-17T00:42:21.079Z,23.21
2022-08-17T00:45:23.247Z,23.17
2022-08-17T00:48:30.282Z,23.13
2022-08-17T00:51:46.457Z,23.23
2022-08-17T00:54:52.175Z,23.24
2022-08-17T00:57:58.579Z,23.20
2022-08-17T01:01:03.991Z,23.19
2022-08-17T01:04:05.966Z,23.15
2022-08-17T01:07:07.666Z,23.15
2022-08-17T01:10:57.123Z,23.11
2022-08-17T01:13:41.203Z,23.04
2022-08-17T01:16:42.860Z,23.00
2022-08-17T01:19:45.184Z,22.87
2022-08-17T01:22:46.711Z,22.87
2022-08-17T01:25:51.048Z,22.84
2022-08-17T01:28:55.789Z,22.86
2022-08-17T01:32:00.996Z,22.60
2022-08-17T01:35:04.966Z,22.22
2022-08-17T01:38:07.066Z,21.79
2022-08-17T01:41:13.850Z,21.34
2022-08-17T01:44:16.731Z,21.19
2022-08-17T01:47:18.178Z,21.11
2022-08-17T01:50:24.658Z,21.09
2022-08-17T01:53:36.586Z,21.06
2022-08-17T01:56:41.956Z,20.96
2022-08-17T01:59:44.185Z,20.82
2022-08-17T02:02:45.764Z,20.82
2022-08-17T02:05:50.729Z,20.89
2022-08-17T02:09:02.599Z,20.86
2022-08-17T02:12:37.100Z,20.93
2022-08-17T02:15:26.945Z,21.08
2022-08-17T02:18:28.648Z,21.16
2022-08-17T02:21:30.043Z,21.29
2022-08-17T02:24:59.509Z,21.30
2022-08-17T02:27:55.893Z,21.25
2022-08-17T02:31:01.256Z,21.20
2022-08-17T02:34:05.422Z,21.22
2022-08-17T02:37:07.035Z,21.40
2022-08-17T02:40:09.329Z,21.48
2022-08-17T02:43:10.757Z,21.50
2022-08-17T02:46:12.770Z,21.44
2022-08-17T02:49:15.646Z,21.33
2022-08-17T02:52:17.054Z,21.37
2022-08-17T02:55:40.577Z,21.43
2022-08-17T02:58:42.087Z,21.50
2022-08-17T03:01:43.695Z,21.45
2022-08-17T03:04:45.124Z,21.21
2022-08-17T03:07:47.413Z,21.10
2022-08-17T03:10:49.997Z,20.90
2022-08-17T03:13:51.413Z,20.76
2022-08-17T03:16:53.657Z,20.78
2022-08-17T03:19:55.070Z,20.78
2022-08-17T03:23:01.982Z,20.84
2022-08-17T03:26:04.690Z,20.91
2022-08-17T03:29:18.809Z,20.93
2022-08-17T03:32:20.603Z,20.91
2022-08-17T03:35:25.498Z,20.95
2022-08-17T03:38:26.950Z,21.04
2022-08-17T03:41:28.405Z,21.15
2022-08-17T03:44:29.841Z,21.18
2022-08-17T03:47:49.853Z,21.23
2022-08-17T03:51:14.204Z,21.24
2022-08-17T03:54:34.636Z,21.24
2022-08-17T03:57:37.020Z,21.26
2022-08-17T04:00:42.258Z,21.13
2022-08-17T04:03:43.730Z,21.01
2022-08-17T04:06:45.299Z,20.99
2022-08-17T04:09:46.820Z,20.92
2022-08-17T04:12:54.061Z,21.03
2022-08-17T04:15:56.129Z,21.12
2022-08-17T04:18:57.578Z,21.20
2022-08-17T04:21:58.999Z,21.32
2022-08-17T04:25:16.448Z,21.41
2022-08-17T04:28:19.788Z,21.48
2022-08-17T04:31:21.198Z,21.48
2022-08-17T04:34:22.889Z,21.51
2022-08-17T04:37:24.345Z,21.54
2022-08-17T04:40:46.281Z,21.53
2022-08-17T04:43:50.046Z,21.46
2022-08-17T04:46:51.490Z,21.41
2022-08-17T04:49:53.456Z,21.45
2022-08-17T04:52:55.234Z,21.52
2022-08-17T04:55:58.918Z,21.58
2022-08-17T04:59:03.980Z,21.62
2022-08-17T05:02:05.525Z,21.66
2022-08-17T05:05:07.208Z,21.66
2022-08-17T05:08:09.402Z,21.66
2022-08-17T05:11:10.923Z,21.61
2022-08-17T05:14:12.548Z,21.59
2022-08-17T05:17:14.153Z,21.67
2022-08-17T05:20:15.557Z,21.51
2022-08-17T05:23:19.593Z,21.65
2022-08-17T05:26:26.827Z,21.78
2022-08-17T05:29:35.093Z,21.83
2022-08-17T05:32:40.331Z,21.93
2022-08-17T05:35:44.425Z,21.95
2022-08-17T05:38:45.936Z,21.98
2022-08-17T05:41:47.980Z,22.08
2022-08-17T05:44:49.449Z,22.00
2022-08-17T05:47:51.024Z,22.13
2022-08-17T05:51:20.042Z,22.12
2022-08-17T05:54:46.071Z,22.30
2022-08-17T05:58:16.501Z,22.37
2022-08-17T06:01:23.724Z,22.43
2022-08-17T06:04:53.145Z,22.42
2022-08-17T06:08:12.264Z,22.31
2022-08-17T06:11:35.318Z,22.25
2022-08-17T06:15:24.741Z,22.32
2022-08-17T06:18:47.754Z,22.32
2022-08-17T06:21:52.866Z,22.35
2022-08-17T06:25:01.097Z,22.50
2022-08-17T06:28:07.653Z,22.72
2022-08-17T06:31:22.228Z,22.87
2022-08-17T06:34:23.796Z,22.80
2022-08-17T06:37:50.196Z,22.88
2022-08-17T06:41:13.561Z,23.04
2022-08-17T06:44:43.402Z,23.28
2022-08-17T06:47:53.013Z,23.35
2022-08-17T06:51:14.378Z,23.33
2022-08-17T06:54:45.767Z,23.40
2022-08-17T06:57:51.693Z,23.38
2022-08-17T07:00:59.082Z,23.29
2022-08-17T07:04:14.376Z,23.30
2022-08-17T07:07:38.263Z,23.20
2022-08-17T07:10:48.076Z,23.13
2022-08-17T07:14:13.995Z,23.05
2022-08-17T07:17:20.537Z,23.05
2022-08-17T07:20:22.473Z,23.06
2022-08-17T07:23:54.213Z,23.06
2022-08-17T07:27:12.376Z,23.03
2022-08-17T07:30:21.747Z,23.10
2022-08-17T07:33:32.773Z,23.17
2022-08-17T07:36:34.666Z,23.16
2022-08-17T07:39:36.114Z,23.17
2022-08-17T07:43:23.128Z,23.16
2022-08-17T07:46:47.510Z,23.21
2022-08-17T07:49:49.334Z,23.28
2022-08-17T07:52:52.504Z,23.29
2022-08-17T07:55:54.342Z,23.34
2022-08-17T07:59:24.586Z,23.50
2022-08-17T08:02:38.955Z,23.60
2022-08-17T08:05:54.374Z,23.71
2022-08-17T08:08:56.331Z,23.78
2022-08-17T08:11:58.781Z,23.82
2022-08-17T08:15:17.215Z,23.85
2022-08-17T08:18:53.844Z,23.97
2022-08-17T08:21:58.966Z,24.07
2022-08-17T08:25:25.398Z,24.09
2022-08-17T08:28:43.325Z,24.18
2022-08-17T08:32:09.164Z,24.33
2022-08-17T08:35:31.502Z,24.36
2022-08-17T08:38:49.056Z,24.36
2022-08-17T08:42:13.087Z,24.39
2022-08-17T08:45:24.371Z,24.41
2022-08-17T08:48:55.933Z,24.48
2022-08-17T08:52:01.973Z,24.50
2022-08-17T08:55:26.739Z,24.60
2022-08-17T08:58:42.467Z,24.59
2022-08-17T09:01:59.748Z,24.67
2022-08-17T09:05:18.310Z,24.75
2022-08-17T09:08:46.154Z,24.81
2022-08-17T09:12:02.062Z,24.92
2022-08-17T09:15:13.654Z,25.06
2022-08-17T09:18:59.185Z,25.18
2022-08-17T09:21:55.117Z,25.23
2022-08-17T09:25:10.131Z,25.28
2022-08-17T09:28:28.670Z,25.26
2022-08-17T09:31:48.690Z,25.26
2022-08-17T09:34:59.883Z,25.31
2022-08-17T09:38:48.153Z,25.39
2022-08-17T09:42:17.503Z,25.41
2022-08-17T09:45:31.421Z,25.43
2022-08-17T09:48:41.191Z,25.53
2022-08-17T09:51:52.136Z,25.68
2022-08-17T09:54:55.660Z,25.86
2022-08-17T09:58:18.629Z,25.88
2022-08-17T10:01:36.573Z,26.00
2022-08-17T10:04:54.250Z,25.96
2022-08-17T10:08:22.861Z,25.96
2022-08-17T10:12:01.058Z,25.96
2022-08-17T10:15:22.298Z,25.95
2022-08-17T10:18:56.165Z,26.01
2022-08-17T10:22:34.850Z,25.64
2022-08-17T10:25:55.771Z,25.16
2022-08-17T10:29:01.169Z,24.94
2022-08-17T10:57:31.954Z,24.02
2022-08-17T11:00:42.943Z,24.15
2022-08-17T11:08:58.606Z,24.39
2022-08-17T11:12:36.716Z,24.60
2022-08-17T12:15:54.755Z,26.76
2022-08-17T12:19:53.127Z,27.01
2022-08-17T12:26:30.265Z,27.21
2022-08-17T12:29:35.737Z,27.29
2022-08-17T12:32:40.931Z,27.15
2022-08-17T13:11:20.087Z,26.70
2022-08-17T13:29:30.384Z,27.43
2022-08-17T13:32:45.139Z,27.95
2022-08-17T13:35:50.303Z,28.33
2022-08-17T13:39:04.504Z,28.56
2022-08-17T13:42:50.548Z,28.33
2022-08-17T13:46:08.073Z,28.36
2022-08-17T13:49:11.768Z,28.43
2022-08-17T13:52:45.143Z,28.51
2022-08-17T13:56:37.689Z,28.74
2022-08-17T13:59:54.749Z,29.07
2022-08-17T14:03:02.702Z,28.74
2022-08-17T14:06:04.983Z,28.60
2022-08-17T14:09:06.405Z,28.84
2022-08-17T14:12:13.197Z,28.96
2022-08-17T14:15:18.068Z,29.39
2022-08-17T14:18:50.664Z,29.65
2022-08-17T14:21:43.670Z,29.30
2022-08-17T14:24:45.621Z,29.04
2022-08-17T14:27:53.352Z,29.22
2022-08-17T14:30:55.437Z,29.64
2022-08-17T14:33:58.840Z,30.03
2022-08-17T14:37:00.258Z,30.21
2022-08-17T14:40:06.421Z,30.33
2022-08-17T14:43:07.977Z,30.19
2022-08-17T14:46:12.090Z,30.45
2022-08-17T14:49:15.541Z,30.47
2022-08-17T14:52:21.473Z,30.60
2022-08-17T14:55:23.449Z,30.66
2022-08-17T14:58:25.917Z,30.79
2022-08-17T15:01:27.563Z,30.55
2022-08-17T15:04:29.103Z,30.65
2022-08-17T15:07:31.407Z,30.83
2022-08-17T15:10:33.575Z,30.81
2022-08-17T15:13:36.268Z,30.83
2022-08-17T15:16:54.105Z,30.79
2022-08-17T15:19:55.513Z,30.78
2022-08-17T15:22:58.783Z,30.85
2022-08-17T15:26:00.367Z,30.69
2022-08-17T15:29:01.925Z,30.72
2022-08-17T15:32:03.728Z,30.79
2022-08-17T15:35:06.896Z,30.65
2022-08-17T15:38:12.056Z,30.82
2022-08-17T15:41:17.873Z,30.64
2022-08-17T15:44:19.307Z,30.46
2022-08-17T15:47:21.303Z,30.48
2022-08-17T15:50:22.813Z,30.30
2022-08-17T15:53:24.232Z,30.28
2022-08-17T15:56:26.473Z,30.42
2022-08-17T15:59:30.852Z,29.92
2022-08-17T16:03:45.352Z,29.92
2022-08-17T16:05:56.436Z,30.08
2022-08-17T16:08:59.916Z,30.08
2022-08-17T16:12:16.130Z,30.00
2022-08-17T16:15:19.036Z,30.12
2022-08-17T16:18:31.553Z,30.04
2022-08-17T16:21:42.908Z,30.10
2022-08-17T16:24:56.797Z,30.16
2022-08-17T16:28:00.131Z,30.03
2022-08-17T16:31:01.929Z,30.07
2022-08-17T16:34:17.205Z,30.00
2022-08-17T16:37:19.973Z,30.05
2022-08-17T16:40:25.963Z,29.92
2022-08-17T16:43:29.190Z,29.85
2022-08-17T16:46:31.046Z,29.78
2022-08-17T16:49:37.211Z,29.71
2022-08-17T16:52:49.398Z,29.76
2022-08-17T16:55:51.924Z,29.77
2022-08-17T16:58:53.522Z,29.69
2022-08-17T17:01:59.707Z,29.69
2022-08-17T17:05:25.079Z,29.69
2022-08-17T17:13:43.678Z,29.64
2022-08-17T17:16:57.054Z,29.58
2022-08-17T17:20:16.734Z,29.55
2022-08-17T17:23:45.640Z,29.40
2022-08-17T17:27:10.901Z,29.36
2022-08-17T17:30:43.312Z,29.36
2022-08-17T17:33:48.783Z,29.29
2022-08-17T17:36:54.245Z,29.28
2022-08-17T17:40:04.910Z,29.01
2022-08-17T17:43:37.126Z,28.93
2022-08-17T17:46:37.857Z,29.03
2022-08-17T17:49:45.076Z,28.89
2022-08-17T17:53:41.580Z,28.74
2022-08-17T17:57:03.059Z,28.63
2022-08-17T18:00:18.460Z,28.60
2022-08-17T18:03:40.276Z,28.63
2022-08-17T18:07:01.782Z,28.62
2022-08-17T18:10:29.740Z,28.61
2022-08-17T18:14:14.214Z,28.64
2022-08-17T18:17:15.682Z,28.62
2022-08-17T18:20:23.768Z,28.58
2022-08-17T18:23:53.165Z,28.54
2022-08-17T18:27:00.161Z,28.52
2022-08-17T18:30:21.481Z,28.51
2022-08-17T18:33:26.231Z,28.43
2022-08-17T18:36:29.372Z,28.38
2022-08-17T18:39:30.895Z,28.33
2022-08-17T18:42:32.421Z,28.27
2022-08-17T18:45:33.842Z,28.22
2022-08-17T18:48:53.399Z,28.16
2022-08-17T18:52:13.156Z,28.07
2022-08-17T18:55:23.672Z,27.98
2022-08-17T18:58:25.605Z,27.88
2022-08-17T19:01:52.112Z,27.79
2022-08-17T19:05:09.421Z,27.67
2022-08-17T19:08:23.904Z,27.52
2022-08-17T19:11:37.366Z,27.47
2022-08-17T19:14:39.793Z,27.43
2022-08-17T19:17:53.408Z,27.31
2022-08-17T19:21:03.673Z,27.12
2022-08-17T19:24:19.749Z,27.03
2022-08-17T19:27:34.899Z,26.96
2022-08-17T19:30:43.425Z,27.04
2022-08-17T19:33:48.008Z,27.01
2022-08-17T19:37:02.017Z,26.86
2022-08-17T19:40:50.665Z,26.85
2022-08-17T19:43:56.038Z,26.78
2022-08-17T19:47:07.676Z,26.79
2022-08-17T19:50:38.341Z,26.77
2022-08-17T19:54:04.277Z,26.69
2022-08-17T19:57:14.283Z,26.59
2022-08-17T20:00:17.916Z,26.44
2022-08-17T20:03:26.914Z,26.41
2022-08-17T20:06:33.076Z,26.38
2022-08-17T20:09:38.573Z,26.34
2022-08-17T20:12:44.107Z,26.23
2022-08-17T20:15:46.135Z,26.06
2022-08-17T20:18:59.320Z,25.79
2022-08-17T20:22:09.427Z,25.59
2022-08-17T20:25:19.878Z,25.30
2022-08-17T20:28:35.265Z,25.26
2022-08-17T20:31:50.876Z,25.33
2022-08-17T20:35:17.300Z,25.40
2022-08-17T20:38:40.092Z,25.39
2022-08-17T20:42:04.063Z,25.26
2022-08-17T20:45:58.280Z,25.20
2022-08-17T20:49:08.489Z,25.15
2022-08-17T20:52:16.653Z,25.19
2022-08-17T20:55:52.276Z,25.07
2022-08-17T20:58:54.321Z,24.84
2022-08-17T21:02:12.433Z,24.81
2022-08-17T21:06:00.009Z,24.89
2022-08-17T21:09:15.620Z,24.94
2022-08-17T21:12:41.404Z,25.00
2022-08-17T21:16:08.585Z,25.00
2022-08-17T21:19:22.921Z,24.94
2022-08-17T21:22:52.378Z,24.98
2022-08-17T21:26:29.630Z,24.95
2022-08-17T21:29:34.046Z,24.60
2022-08-17T21:32:43.945Z,24.58
2022-08-17T21:35:58.745Z,24.63
2022-08-17T21:39:06.357Z,24.69
2022-08-17T21:42:08.027Z,24.75
2022-08-17T21:45:27.320Z,24.70
2022-08-17T21:48:32.278Z,24.66
2022-08-17T21:51:36.980Z,24.54
2022-08-17T21:54:42.529Z,24.57
2022-08-17T21:57:53.258Z,24.32
2022-08-17T22:01:28.343Z,24.08
2022-08-17T22:04:32.872Z,24.00
2022-08-17T22:07:45.679Z,23.96
2022-08-17T22:10:50.636Z,23.99
2022-08-17T22:13:52.070Z,24.11
2022-08-17T22:17:21.242Z,24.17
2022-08-17T22:20:22.731Z,24.17
2022-08-17T22:23:55.074Z,24.18
2022-08-17T22:27:03.638Z,24.19
2022-08-17T22:30:34.956Z,24.22
2022-08-17T22:33:41.517Z,24.14
2022-08-17T22:36:43.298Z,24.08
2022-08-17T22:39:45.263Z,24.01
2022-08-17T22:42:47.357Z,24.05
2022-08-17T22:45:53.271Z,24.09
2022-08-17T22:48:59.219Z,24.06
2022-08-17T22:52:07.741Z,23.94
2022-08-17T22:55:34.762Z,23.93
2022-08-17T22:59:02.129Z,24.02
2022-08-17T23:02:29.636Z,23.95
2022-08-17T23:05:31.314Z,24.03
2022-08-17T23:08:35.474Z,23.98
2022-08-17T23:11:50.046Z,24.05
2022-08-17T23:14:57.446Z,24.10
2022-08-17T23:18:05.068Z,24.19
2022-08-17T23:21:07.645Z,24.18
2022-08-17T23:24:09.744Z,24.29
2022-08-17T23:27:11.689Z,24.22
2022-08-17T23:30:13.644Z,24.13
2022-08-17T23:33:26.467Z,24.06
2022-08-17T23:36:29.338Z,23.71
2022-08-17T23:39:30.906Z,23.52
2022-08-17T23:42:33.593Z,23.44
2022-08-17T23:45:35.017Z,23.47
2022-08-17T23:48:37.408Z,23.48
2022-08-17T23:51:43.547Z,23.39
2022-08-17T23:54:46.909Z,23.30
2022-08-17T23:57:48.423Z,23.25
